createdAt,value
2018-02-12T00:01:36.404Z,1.40
2018-02-12T00:04:10.639Z,1.40
2018-02-12T00:06:44.024Z,1.40
2018-02-12T00:09:17.103Z,1.40
2018-02-12T00:11:50.236Z,1.40
2018-02-12T00:14:23.451Z,1.40
2018-02-12T00:16:56.583Z,1.40
2018-02-12T00:19:30.984Z,1.40
2018-02-12T00:22:04.559Z,1.40
2018-02-12T00:24:37.900Z,1.30
2018-02-12T00:27:12.084Z,1.20
2018-02-12T00:29:46.484Z,1.20
2018-02-12T00:32:19.815Z,1.20
2018-02-12T00:34:53.324Z,1.20
2018-02-12T00:37:28.207Z,1.20
2018-02-12T00:40:01.512Z,1.20
2018-02-12T00:42:35.416Z,1.20
2018-02-12T00:45:08.888Z,1.20
2018-02-12T00:47:42.233Z,1.20
2018-02-12T00:50:16.524Z,1.20
2018-02-12T00:52:49.698Z,1.20
2018-02-12T00:55:23.190Z,1.20
2018-02-12T00:57:56.304Z,1.50
2018-02-12T01:00:30.312Z,1.20
2018-02-12T01:03:03.604Z,1.20
2018-02-12T01:05:36.772Z,1.20
2018-02-12T01:08:10.080Z,1.20
2018-02-12T01:10:43.340Z,1.20
2018-02-12T01:13:17.547Z,1.20
2018-02-12T01:15:51.572Z,1.20
2018-02-12T01:18:24.992Z,1.10
2018-02-12T01:20:59.695Z,1.10
2018-02-12T01:23:33.047Z,1.20
2018-02-12T01:26:06.676Z,1.10
2018-02-12T01:28:40.203Z,1.10
2018-02-12T01:31:13.696Z,1.10
2018-02-12T01:33:47.731Z,1.10
2018-02-12T01:36:22.688Z,1.10
2018-02-12T01:38:55.835Z,1.10
2018-02-12T01:41:29.756Z,1.10
2018-02-12T01:44:03.479Z,1.10
2018-02-12T01:46:37.240Z,1.10
2018-02-12T01:49:11.680Z,1.10
2018-02-12T01:51:45.212Z,1.10
2018-02-12T01:54:18.340Z,1.10
2018-02-12T01:56:51.487Z,1.10
2018-02-12T01:59:24.752Z,1.10
2018-02-12T02:01:58.515Z,1.00
2018-02-12T02:04:31.646Z,1.10
2018-02-12T02:07:05.272Z,1.10
2018-02-12T02:09:39.681Z,1.10
2018-02-12T02:12:13.375Z,1.10
2018-02-12T02:14:46.927Z,1.10
2018-02-12T02:19:59.020Z,1.10
2018-02-12T02:22:29.234Z,1.10
2018-02-12T02:24:59.895Z,1.10
2018-02-12T02:27:30.875Z,1.10
2018-02-12T02:30:02.087Z,1.20
2018-02-12T02:32:32.299Z,1.20
2018-02-12T02:35:02.784Z,1.30
2018-02-12T02:37:33.039Z,1.30
2018-02-12T02:40:03.409Z,1.30
2018-02-12T02:42:33.922Z,1.40
2018-02-12T02:45:04.217Z,1.40
2018-02-12T02:47:34.699Z,1.30
2018-02-12T02:50:06.463Z,1.30
2018-02-12T02:52:36.670Z,1.30
2018-02-12T02:55:08.372Z,1.30
2018-02-12T02:57:40.134Z,1.30
2018-02-12T03:00:10.734Z,1.30
2018-02-12T03:02:41.875Z,1.20
2018-02-12T03:05:12.139Z,1.20
2018-02-12T03:07:42.651Z,1.20
2018-02-12T03:10:14.192Z,1.20
2018-02-12T03:12:44.404Z,1.20
2018-02-12T03:15:18.480Z,1.40
2018-02-12T03:17:49.005Z,1.20
2018-02-12T03:20:20.508Z,1.20
2018-02-12T03:22:50.722Z,1.20
2018-02-12T03:25:21.359Z,1.20
2018-02-12T03:27:51.575Z,1.20
2018-02-12T03:30:21.819Z,1.20
2018-02-12T03:32:52.126Z,1.20
2018-02-12T03:35:22.616Z,1.20
2018-02-12T03:37:52.807Z,1.30
2018-02-12T03:40:23.822Z,1.30
2018-02-12T03:42:55.811Z,1.20
2018-02-12T03:45:26.418Z,1.20
2018-02-12T03:47:56.778Z,1.20
2018-02-12T03:50:28.747Z,1.20
2018-02-12T03:52:58.944Z,1.20
2018-02-12T03:55:29.632Z,1.20
2018-02-12T03:58:00.092Z,1.10
2018-02-12T04:00:30.303Z,1.10
2018-02-12T04:03:01.943Z,1.10
2018-02-12T04:05:32.718Z,1.10
2018-02-12T04:08:03.323Z,1.10
2018-02-12T04:10:33.970Z,1.10
2018-02-12T04:13:04.298Z,1.10
2018-02-12T04:15:34.875Z,1.10
2018-02-12T04:18:06.155Z,1.10
2018-02-12T04:20:36.410Z,1.10
2018-02-12T04:23:07.768Z,1.00
2018-02-12T04:25:38.302Z,1.00
2018-02-12T04:28:08.692Z,1.00
2018-02-12T04:30:39.681Z,1.00
2018-02-12T04:33:11.041Z,1.00
2018-02-12T04:35:42.631Z,1.10
2018-02-12T04:38:13.616Z,1.10
2018-02-12T04:40:45.888Z,1.10
2018-02-12T04:43:17.334Z,1.20
2018-02-12T04:45:47.903Z,1.20
2018-02-12T04:48:18.262Z,1.10
2018-02-12T04:50:49.043Z,1.10
2018-02-12T04:53:19.273Z,1.20
2018-02-12T04:55:49.971Z,1.20
2018-02-12T04:58:20.419Z,1.20
2018-02-12T05:00:50.691Z,1.20
2018-02-12T05:03:21.167Z,1.30
2018-02-12T05:05:51.375Z,1.30
2018-02-12T05:08:21.906Z,1.30
2018-02-12T05:10:52.179Z,1.30
2018-02-12T05:13:23.408Z,1.30
2018-02-12T05:15:54.420Z,1.30
2018-02-12T05:18:24.910Z,1.30
2018-02-12T05:20:56.047Z,1.30
2018-02-12T05:23:26.330Z,1.30
2018-02-12T05:25:56.547Z,1.30
2018-02-12T05:28:38.675Z,1.20
2018-02-12T05:31:10.903Z,1.20
2018-02-12T05:33:41.218Z,1.20
2018-02-12T05:36:12.723Z,1.20
2018-02-12T05:38:43.195Z,1.20
2018-02-12T05:41:13.912Z,1.20
2018-02-12T05:43:49.536Z,1.20
2018-02-12T05:46:21.352Z,1.20
2018-02-12T05:48:51.587Z,1.20
2018-02-12T05:51:23.608Z,1.30
2018-02-12T05:53:55.683Z,1.30
2018-02-12T05:56:28.383Z,1.30
2018-02-12T05:58:59.574Z,1.50
2018-02-12T06:01:30.163Z,1.40
2018-02-12T06:04:04.642Z,1.50
2018-02-12T06:06:35.714Z,1.60
2018-02-12T06:09:06.358Z,1.50
2018-02-12T06:11:39.223Z,1.40
2018-02-12T06:14:19.603Z,1.20
2018-02-12T06:16:50.016Z,1.30
2018-02-12T06:19:20.491Z,1.20
2018-02-12T06:21:50.713Z,1.20
2018-02-12T06:24:21.976Z,1.20
2018-02-12T06:26:54.915Z,1.10
2018-02-12T06:29:27.103Z,1.30
2018-02-12T06:31:57.406Z,1.30
2018-02-12T06:34:29.126Z,1.50
2018-02-12T06:36:59.887Z,1.50
2018-02-12T06:39:30.879Z,1.60
2018-02-12T06:42:01.088Z,1.50
2018-02-12T06:44:31.347Z,1.60
2018-02-12T06:47:05.156Z,1.60
2018-02-12T06:49:39.406Z,1.40
2018-02-12T06:52:17.200Z,1.40
2018-02-12T06:54:49.829Z,1.40
2018-02-12T06:57:40.860Z,1.40
2018-02-12T07:00:17.351Z,1.40
2018-02-12T07:02:49.857Z,1.40
2018-02-12T07:05:21.766Z,1.30
2018-02-12T07:07:54.215Z,0.90
2018-02-12T07:10:28.327Z,0.90
2018-02-12T07:13:01.267Z,0.90
2018-02-12T07:15:34.107Z,0.90
2018-02-12T07:18:12.272Z,0.90
2018-02-12T07:20:49.775Z,0.90
2018-02-12T07:26:05.880Z,1.00
2018-02-12T07:28:37.660Z,1.00
2018-02-12T07:31:10.741Z,1.00
2018-02-12T07:33:41.974Z,0.90
2018-02-12T07:36:20.388Z,0.80
2018-02-12T07:38:52.803Z,0.70
2018-02-12T07:41:23.422Z,0.80
2018-02-12T07:44:14.161Z,0.80
2018-02-12T07:46:48.475Z,0.80
2018-02-12T07:49:34.354Z,0.80
2018-02-12T07:52:11.489Z,0.80
2018-02-12T07:54:44.094Z,0.80
2018-02-12T07:57:25.811Z,1.00
2018-02-12T08:00:17.914Z,0.90
2018-02-12T08:02:52.467Z,0.90
2018-02-12T08:05:23.939Z,1.00
2018-02-12T08:07:54.300Z,1.00
2018-02-12T08:10:26.309Z,1.10
2018-02-12T08:12:56.991Z,1.10
2018-02-12T08:15:27.489Z,1.30
2018-02-12T08:17:58.504Z,1.40
2018-02-12T08:20:28.750Z,1.30
2018-02-12T08:23:00.048Z,1.40
2018-02-12T08:25:31.040Z,1.50
2018-02-12T08:28:01.608Z,1.50
2018-02-12T08:30:32.004Z,1.50
2018-02-12T08:33:03.837Z,1.60
2018-02-12T08:35:34.823Z,1.60
2018-02-12T08:38:05.406Z,1.50
2018-02-12T08:40:36.572Z,1.50
2018-02-12T08:44:10.667Z,1.40
2018-02-12T08:46:41.159Z,1.40
2018-02-12T08:49:11.670Z,1.20
2018-02-12T08:51:42.915Z,1.40
2018-02-12T08:54:17.435Z,1.40
2018-02-12T08:56:48.515Z,1.50
2018-02-12T08:59:19.008Z,1.50
2018-02-12T09:01:49.991Z,1.70
2018-02-12T09:04:20.922Z,1.60
2018-02-12T09:06:52.255Z,1.40
2018-02-12T09:09:22.447Z,1.40
2018-02-12T09:11:54.043Z,1.30
2018-02-12T09:14:25.078Z,1.20
2018-02-12T09:16:55.323Z,1.30
2018-02-12T09:19:25.582Z,1.30
2018-02-12T09:21:56.841Z,1.40
2018-02-12T09:24:27.076Z,1.40
2018-02-12T09:26:57.287Z,1.60
2018-02-12T09:29:27.760Z,1.80
2018-02-12T09:31:58.058Z,1.70
2018-02-12T09:34:29.227Z,1.70
2018-02-12T09:37:00.515Z,1.70
2018-02-12T09:39:31.018Z,1.90
2018-02-12T09:42:01.593Z,1.90
2018-02-12T09:44:33.730Z,1.80
2018-02-12T09:47:04.747Z,1.80
2018-02-12T09:49:35.264Z,1.70
2018-02-12T09:52:05.483Z,2.10
2018-02-12T09:54:35.703Z,1.90
2018-02-12T09:57:06.228Z,1.50
2018-02-12T09:59:37.032Z,1.30
2018-02-12T10:02:07.284Z,1.20
2018-02-12T10:04:37.795Z,1.00
2018-02-12T10:07:08.179Z,1.50
2018-02-12T10:09:38.712Z,1.70
2018-02-12T10:12:09.986Z,1.90
2018-02-12T10:14:40.776Z,2.10
2018-02-12T10:17:18.730Z,2.20
2018-02-12T10:19:48.975Z,2.20
2018-02-12T10:22:19.399Z,2.30
2018-02-12T10:24:54.745Z,2.60
2018-02-12T10:27:25.978Z,2.70
2018-02-12T10:29:56.240Z,2.70
2018-02-12T10:32:26.992Z,2.80
2018-02-12T10:34:58.106Z,2.90
2018-02-12T10:37:29.199Z,3.00
2018-02-12T10:39:59.559Z,2.90
2018-02-12T10:42:31.378Z,3.10
2018-02-12T10:45:01.642Z,3.00
2018-02-12T10:47:32.695Z,3.20
2018-02-12T10:50:02.988Z,3.10
2018-02-12T10:52:33.588Z,3.30
2018-02-12T10:55:04.007Z,3.40
2018-02-12T10:57:34.299Z,3.60
2018-02-12T11:00:05.745Z,4.00
2018-02-12T11:02:36.115Z,4.00
2018-02-12T11:05:06.646Z,4.30
2018-02-12T11:07:36.859Z,4.40
2018-02-12T11:10:07.619Z,4.50
2018-02-12T11:12:38.677Z,4.00
2018-02-12T11:15:10.269Z,3.90
2018-02-12T11:17:40.490Z,3.90
2018-02-12T11:20:11.088Z,4.00
2018-02-12T11:22:42.360Z,4.30
2018-02-12T11:25:13.102Z,4.30
2018-02-12T11:27:44.103Z,4.40
2018-02-12T11:30:15.350Z,4.60
2018-02-12T11:32:46.367Z,4.60
2018-02-12T11:35:16.842Z,4.60
2018-02-12T11:37:48.971Z,4.40
2018-02-12T11:40:20.008Z,4.40
2018-02-12T11:42:51.950Z,4.40
2018-02-12T11:45:22.472Z,4.50
2018-02-12T11:47:53.491Z,4.50
2018-02-12T11:50:23.751Z,4.50
2018-02-12T11:52:54.267Z,4.50
2018-02-12T11:55:24.790Z,4.60
2018-02-12T11:57:55.917Z,4.60
2018-02-12T12:00:29.855Z,4.60
2018-02-12T12:03:00.491Z,4.40
2018-02-12T12:05:32.152Z,4.70
2018-02-12T12:08:03.441Z,4.90
2018-02-12T12:10:35.048Z,4.80
2018-02-12T12:13:06.695Z,5.10
2018-02-12T12:15:37.843Z,5.00
2018-02-12T12:18:08.833Z,4.80
2018-02-12T12:20:40.118Z,4.80
2018-02-12T12:23:10.445Z,5.00
2018-02-12T12:25:42.315Z,4.60
2018-02-12T12:28:13.771Z,4.70
2018-02-12T12:30:45.144Z,4.70
2018-02-12T12:33:16.371Z,4.60
2018-02-12T12:35:47.945Z,4.60
2018-02-12T12:38:18.452Z,4.70
2018-02-12T12:40:48.663Z,4.80
2018-02-12T12:43:19.908Z,4.80
2018-02-12T12:45:51.817Z,4.80
2018-02-12T12:48:22.035Z,4.80
2018-02-12T12:50:53.284Z,4.90
2018-02-12T12:53:23.808Z,4.90
2018-02-12T12:55:54.712Z,4.80
2018-02-12T12:58:25.015Z,4.80
2018-02-12T13:00:55.600Z,4.80
2018-02-12T13:03:25.837Z,4.80
2018-02-12T13:05:58.330Z,4.90
2018-02-12T13:08:28.727Z,4.90
2018-02-12T13:10:59.155Z,5.00
2018-02-12T13:13:29.955Z,5.00
2018-02-12T13:16:00.500Z,5.30
2018-02-12T13:18:30.728Z,5.30
2018-02-12T13:21:02.165Z,5.30
2018-02-12T13:23:34.195Z,5.20
2018-02-12T13:26:05.310Z,5.40
2018-02-12T13:28:35.910Z,5.30
2018-02-12T13:31:06.258Z,5.20
2018-02-12T13:33:38.855Z,5.10
2018-02-12T13:36:10.215Z,4.90
2018-02-12T13:38:40.764Z,4.90
2018-02-12T13:41:11.031Z,4.80
2018-02-12T13:43:42.510Z,4.30
2018-02-12T13:46:13.903Z,4.30
2018-02-12T13:48:47.007Z,4.00
2018-02-12T13:51:18.355Z,3.70
2018-02-12T13:53:48.965Z,3.50
2018-02-12T13:56:19.211Z,3.40
2018-02-12T13:58:50.723Z,3.30
2018-02-12T14:01:21.328Z,3.40
2018-02-12T14:03:53.072Z,4.20
2018-02-12T14:06:24.539Z,4.50
2018-02-12T14:08:54.755Z,4.50
2018-02-12T14:11:25.032Z,4.70
2018-02-12T14:13:55.677Z,4.90
2018-02-12T14:16:25.927Z,5.00
2018-02-12T14:18:58.036Z,4.50
2018-02-12T14:21:28.668Z,4.50
2018-02-12T14:23:59.307Z,4.70
2018-02-12T14:26:30.232Z,4.90
2018-02-12T14:29:05.217Z,5.20
2018-02-12T14:31:37.681Z,4.40
2018-02-12T14:34:13.054Z,4.40
2018-02-12T14:36:49.295Z,4.20
2018-02-12T14:39:20.493Z,4.20
2018-02-12T14:41:50.722Z,4.60
2018-02-12T14:44:20.965Z,5.00
2018-02-12T14:46:51.644Z,4.70
2018-02-12T14:49:21.872Z,4.50
2018-02-12T14:51:52.151Z,4.20
2018-02-12T14:54:23.446Z,4.00
2018-02-12T14:56:54.931Z,4.00
2018-02-12T14:59:37.270Z,3.90
2018-02-12T15:02:13.967Z,3.90
2018-02-12T15:04:45.667Z,3.60
2018-02-12T15:10:06.414Z,3.20
2018-02-12T15:12:36.820Z,3.20
2018-02-12T15:15:07.732Z,2.90
2018-02-12T15:17:38.328Z,2.70
2018-02-12T15:20:14.587Z,2.00
2018-02-12T15:22:45.835Z,1.90
2018-02-12T15:25:17.908Z,1.60
2018-02-12T15:27:49.311Z,1.30
2018-02-12T15:30:23.845Z,0.90
2018-02-12T15:32:54.738Z,0.90
2018-02-12T15:35:25.616Z,0.90
2018-02-12T15:37:56.052Z,0.80
2018-02-12T15:40:27.587Z,0.80
2018-02-12T15:42:58.888Z,0.80
2018-02-12T15:45:29.760Z,0.80
2018-02-12T15:48:00.784Z,0.80
2018-02-12T15:50:31.451Z,0.70
2018-02-12T15:53:02.327Z,0.70
2018-02-12T15:55:37.076Z,0.70
2018-02-12T15:58:09.560Z,0.70
2018-02-12T16:00:42.764Z,0.70
2018-02-12T16:03:13.972Z,0.80
2018-02-12T16:05:44.703Z,0.80
2018-02-12T16:08:16.384Z,0.80
2018-02-12T16:10:47.513Z,1.00
2018-02-12T16:13:18.535Z,1.00
2018-02-12T16:15:49.012Z,1.10
2018-02-12T16:18:19.866Z,1.00
2018-02-12T16:20:50.522Z,1.00
2018-02-12T16:23:21.140Z,1.00
2018-02-12T16:25:51.427Z,1.10
2018-02-12T16:28:21.655Z,1.10
2018-02-12T16:30:52.359Z,1.20
2018-02-12T16:33:22.659Z,1.20
2018-02-12T16:35:53.431Z,1.20
2018-02-12T16:38:24.736Z,1.30
2018-02-12T16:40:55.004Z,1.30
2018-02-12T16:43:25.548Z,1.30
2018-02-12T16:45:57.288Z,1.20
2018-02-12T16:48:28.529Z,1.10
2018-02-12T16:50:59.684Z,1.10
2018-02-12T16:53:30.195Z,1.20
2018-02-12T16:56:00.682Z,1.20
2018-02-12T16:58:31.775Z,1.10
2018-02-12T17:01:02.351Z,1.10
2018-02-12T17:03:50.239Z,1.10
2018-02-12T17:06:23.732Z,1.10
2018-02-12T17:08:54.040Z,1.10
2018-02-12T17:11:25.154Z,1.10
2018-02-12T17:13:55.701Z,1.10
2018-02-12T17:16:27.042Z,1.10
2018-02-12T17:18:58.112Z,1.10
2018-02-12T17:21:28.717Z,1.10
2018-02-12T17:23:59.118Z,0.90
2018-02-12T17:26:29.628Z,0.80
2018-02-12T17:29:01.148Z,0.80
2018-02-12T17:31:31.824Z,0.80
2018-02-12T17:34:02.555Z,0.80
2018-02-12T17:36:34.046Z,0.80
2018-02-12T17:39:05.307Z,0.80
2018-02-12T17:41:35.879Z,0.80
2018-02-12T17:44:07.137Z,0.80
2018-02-12T17:46:37.800Z,0.80
2018-02-12T17:49:09.003Z,0.70
2018-02-12T17:51:39.541Z,0.70
2018-02-12T17:54:11.199Z,0.70
2018-02-12T17:56:43.458Z,0.70
2018-02-12T17:59:13.868Z,0.70
2018-02-12T18:01:44.232Z,0.80
2018-02-12T18:04:14.915Z,0.80
2018-02-12T18:06:45.406Z,0.80
2018-02-12T18:09:16.043Z,0.80
2018-02-12T18:11:46.502Z,0.80
2018-02-12T18:14:16.881Z,0.80
2018-02-12T18:16:48.715Z,0.70
2018-02-12T18:19:19.292Z,0.70
2018-02-12T18:21:49.825Z,0.70
2018-02-12T18:24:21.290Z,0.70
2018-02-12T18:26:53.055Z,0.60
2018-02-12T18:29:24.439Z,0.60
2018-02-12T18:31:56.287Z,0.60
2018-02-12T18:34:27.238Z,0.60
2018-02-12T18:37:01.522Z,0.60
2018-02-12T18:39:33.516Z,0.70
2018-02-12T18:42:04.214Z,0.60
2018-02-12T18:44:35.725Z,0.70
2018-02-12T18:47:10.609Z,0.70
2018-02-12T18:49:42.422Z,0.60
2018-02-12T18:52:14.698Z,0.60
2018-02-12T18:54:45.670Z,0.60
2018-02-12T18:57:16.640Z,0.60
2018-02-12T18:59:47.954Z,0.60
2018-02-12T19:02:18.949Z,0.70
2018-02-12T19:04:50.562Z,0.70
2018-02-12T19:07:22.051Z,0.70
2018-02-12T19:09:53.153Z,0.70
2018-02-12T19:12:25.401Z,0.80
2018-02-12T19:14:57.141Z,0.80
2018-02-12T19:17:28.069Z,0.90
2018-02-12T19:19:59.124Z,0.90
2018-02-12T19:22:30.207Z,0.90
2018-02-12T19:25:02.041Z,0.90
2018-02-12T19:27:32.897Z,0.90
2018-02-12T19:30:04.006Z,0.80
2018-02-12T19:32:35.534Z,0.90
2018-02-12T19:35:06.519Z,0.90
2018-02-12T19:37:37.654Z,0.90
2018-02-12T19:40:08.825Z,0.90
2018-02-12T19:42:39.661Z,0.90
2018-02-12T19:45:10.682Z,0.90
2018-02-12T19:47:41.874Z,0.90
2018-02-12T19:50:12.797Z,0.90
2018-02-12T19:52:44.101Z,0.90
2018-02-12T19:55:15.352Z,0.90
2018-02-12T19:57:46.592Z,0.90
2018-02-12T20:00:18.479Z,0.80
2018-02-12T20:02:50.080Z,0.80
2018-02-12T20:05:21.461Z,0.80
2018-02-12T20:07:54.048Z,0.80
2018-02-12T20:10:26.027Z,0.80
2018-02-12T20:12:57.809Z,0.80
2018-02-12T20:15:30.306Z,0.90
2018-02-12T20:18:02.981Z,0.80
2018-02-12T20:20:38.547Z,1.00
2018-02-12T20:23:26.356Z,0.90
2018-02-12T20:26:18.492Z,0.90
2018-02-12T20:42:00.044Z,0.90
2018-02-12T21:04:32.758Z,0.90
2018-02-12T21:07:08.090Z,0.90
2018-02-12T21:09:40.328Z,1.20
2018-02-12T21:12:12.666Z,1.30
2018-02-12T21:14:44.824Z,1.40
2018-02-12T21:17:17.397Z,1.40
2018-02-12T21:19:48.713Z,1.40
2018-02-12T21:22:20.123Z,1.20
2018-02-12T21:24:51.884Z,1.20
2018-02-12T21:27:23.769Z,1.20
2018-02-12T21:29:55.767Z,1.20
2018-02-12T21:32:27.226Z,1.10
2018-02-12T21:35:00.077Z,0.90
2018-02-12T21:37:31.195Z,0.90
2018-02-12T21:40:02.072Z,0.80
2018-02-12T21:42:34.384Z,0.70
2018-02-12T21:45:05.491Z,0.70
2018-02-12T21:47:36.500Z,0.70
2018-02-12T21:50:08.060Z,0.70
2018-02-12T21:52:54.479Z,0.70
2018-02-12T21:55:47.039Z,0.70
2018-02-12T21:58:40.213Z,0.70
2018-02-12T22:01:32.727Z,0.60
2018-02-12T22:04:25.023Z,0.60
2018-02-12T22:07:17.315Z,0.60
2018-02-12T22:10:09.347Z,0.50
2018-02-12T22:13:01.453Z,0.50
2018-02-12T22:15:54.786Z,0.50
2018-02-12T22:18:47.884Z,0.50
2018-02-12T22:21:42.480Z,0.40
2018-02-12T22:24:35.284Z,0.40
2018-02-12T22:27:28.338Z,0.50
2018-02-12T22:30:21.648Z,0.40
2018-02-12T22:33:14.870Z,0.40
2018-02-12T22:36:07.332Z,0.40
2018-02-12T22:38:59.646Z,0.40
2018-02-12T22:41:52.479Z,0.30
2018-02-12T22:44:44.608Z,0.30
2018-02-12T22:47:37.857Z,0.20
2018-02-12T22:50:29.923Z,0.20
2018-02-12T22:53:07.313Z,0.20
2018-02-12T22:55:38.239Z,0.20
2018-02-12T22:58:08.568Z,0.10
2018-02-12T23:00:39.643Z,0.10
2018-02-12T23:03:10.180Z,0.10
2018-02-12T23:05:41.379Z,0.10
2018-02-12T23:08:12.987Z,0.10
2018-02-12T23:10:44.452Z,0.00
2018-02-12T23:13:16.431Z,0.00
2018-02-12T23:15:47.999Z,0.00
2018-02-12T23:18:18.479Z,0.00
2018-02-12T23:21:18.140Z,-0.10
2018-02-12T23:23:50.711Z,-0.10
2018-02-12T23:26:21.371Z,-0.10
2018-02-12T23:28:51.691Z,-0.10
2018-02-12T23:31:21.894Z,0.00
2018-02-12T23:33:52.726Z,0.00
2018-02-12T23:36:25.867Z,-0.10
2018-02-12T23:38:56.367Z,-0.10
2018-02-12T23:41:26.967Z,-0.10
2018-02-12T23:43:57.395Z,-0.10
2018-02-12T23:46:42.672Z,-0.10
2018-02-12T23:49:14.334Z,-0.10
2018-02-12T23:51:44.835Z,-0.10
2018-02-12T23:54:24.099Z,-0.10
2018-02-12T23:56:55.575Z,-0.20
2018-02-12T23:59:26.593Z,-0.20
